sensor_id;sensor_type;location;lat;lon;timestamp;pressure;altitude;pressure_sealevel;temperature;humidity
34297;BME280;20564;42.902;25.336;2023-02-13T00:02:17;99097.94;;;-1.22;100.00
34297;BME280;20564;42.902;25.336;2023-02-13T00:04:43;99091.09;;;-1.23;100.00
34297;BME280;20564;42.902;25.336;2023-02-13T00:07:11;99103.97;;;-1.22;98.75
34297;BME280;20564;42.902;25.336;2023-02-13T00:09:38;99087.75;;;-1.33;98.38
34297;BME280;20564;42.902;25.336;2023-02-13T00:12:06;99093.84;;;-1.37;98.96
34297;BME280;20564;42.902;25.336;2023-02-13T00:14:36;99091.28;;;-1.40;99.03
34297;BME280;20564;42.902;25.336;2023-02-13T00:17:04;99092.34;;;-1.53;99.32
34297;BME280;20564;42.902;25.336;2023-02-13T00:19:32;99104.44;;;-1.58;99.66
34297;BME280;20564;42.902;25.336;2023-02-13T00:21:59;99099.38;;;-1.64;99.96
34297;BME280;20564;42.902;25.336;2023-02-13T00:24:27;99093.34;;;-1.66;99.68
34297;BME280;20564;42.902;25.336;2023-02-13T00:26:54;99101.16;;;-1.73;99.86
34297;BME280;20564;42.902;25.336;2023-02-13T00:29:21;99108.78;;;-1.62;98.53
34297;BME280;20564;42.902;25.336;2023-02-13T00:31:48;99106.28;;;-1.70;97.92
34297;BME280;20564;42.902;25.336;2023-02-13T00:34:16;99099.47;;;-1.75;98.50
34297;BME280;20564;42.902;25.336;2023-02-13T00:36:43;99104.59;;;-1.72;98.40
34297;BME280;20564;42.902;25.336;2023-02-13T00:39:11;99097.78;;;-1.78;98.41
34297;BME280;20564;42.902;25.336;2023-02-13T00:41:38;99100.41;;;-1.84;99.08
34297;BME280;20564;42.902;25.336;2023-02-13T00:44:09;99097.84;;;-1.84;99.17
34297;BME280;20564;42.902;25.336;2023-02-13T00:46:39;99108.25;;;-1.90;98.68
34297;BME280;20564;42.902;25.336;2023-02-13T00:49:07;99102.31;;;-2.00;98.46
34297;BME280;20564;42.902;25.336;2023-02-13T00:51:37;99106.53;;;-1.94;99.40
34297;BME280;20564;42.902;25.336;2023-02-13T00:54:04;99102.25;;;-1.93;98.74
34297;BME280;20564;42.902;25.336;2023-02-13T00:56:31;99098.88;;;-2.02;99.32
34297;BME280;20564;42.902;25.336;2023-02-13T00:58:59;99106.59;;;-1.97;99.71
34297;BME280;20564;42.902;25.336;2023-02-13T01:01:26;99106.50;;;-1.91;98.11
34297;BME280;20564;42.902;25.336;2023-02-13T01:04:19;99085.22;;;-2.10;98.47
34297;BME280;20564;42.902;25.336;2023-02-13T01:11:23;99107.44;;;-1.97;96.12
34297;BME280;20564;42.902;25.336;2023-02-13T01:13:50;99103.28;;;-2.08;95.38
34297;BME280;20564;42.902;25.336;2023-02-13T01:16:22;99105.09;;;-2.18;95.43
34297;BME280;20564;42.902;25.336;2023-02-13T01:18:49;99100.81;;;-2.22;96.47
34297;BME280;20564;42.902;25.336;2023-02-13T01:21:21;99106.91;;;-2.31;96.64
34297;BME280;20564;42.902;25.336;2023-02-13T01:23:53;99119.00;;;-2.36;96.45
34297;BME280;20564;42.902;25.336;2023-02-13T01:26:23;99101.06;;;-2.48;97.47
34297;BME280;20564;42.902;25.336;2023-02-13T01:29:17;99102.78;;;-2.50;97.62
34297;BME280;20564;42.902;25.336;2023-02-13T01:31:47;99125.00;;;-2.34;97.63
34297;BME280;20564;42.902;25.336;2023-02-13T01:34:14;99104.41;;;-2.40;96.71
34297;BME280;20564;42.902;25.336;2023-02-13T01:36:42;99105.28;;;-2.41;96.44
34297;BME280;20564;42.902;25.336;2023-02-13T01:39:10;99113.06;;;-2.44;96.42
34297;BME280;20564;42.902;25.336;2023-02-13T01:41:38;99116.53;;;-2.51;97.13
34297;BME280;20564;42.902;25.336;2023-02-13T01:50:32;99117.41;;;-2.52;96.99
34297;BME280;20564;42.902;25.336;2023-02-13T01:55:41;99086.66;;;-2.77;97.28
34297;BME280;20564;42.902;25.336;2023-02-13T01:58:12;99125.25;;;-2.66;96.49
34297;BME280;20564;42.902;25.336;2023-02-13T02:08:37;99091.84;;;-2.83;96.09
34297;BME280;20564;42.902;25.336;2023-02-13T02:11:10;99095.28;;;-2.78;96.01
34297;BME280;20564;42.902;25.336;2023-02-13T02:13:45;99113.31;;;-2.78;96.22
34297;BME280;20564;42.902;25.336;2023-02-13T02:16:12;99102.13;;;-2.77;95.17
34297;BME280;20564;42.902;25.336;2023-02-13T02:18:47;99116.75;;;-2.77;95.21
34297;BME280;20564;42.902;25.336;2023-02-13T02:21:44;99113.31;;;-2.81;95.50
34297;BME280;20564;42.902;25.336;2023-02-13T02:27:20;99124.47;;;-2.82;94.12
34297;BME280;20564;42.902;25.336;2023-02-13T02:35:18;99122.91;;;-3.04;95.95
34297;BME280;20564;42.902;25.336;2023-02-13T03:05:30;99118.75;;;-3.33;95.73
34297;BME280;20564;42.902;25.336;2023-02-13T03:08:32;99123.91;;;-3.33;95.29
34297;BME280;20564;42.902;25.336;2023-02-13T03:11:20;99111.91;;;-3.31;94.99
34297;BME280;20564;42.902;25.336;2023-02-13T03:14:08;99117.84;;;-3.23;93.39
34297;BME280;20564;42.902;25.336;2023-02-13T03:16:37;99097.34;;;-3.44;93.68
34297;BME280;20564;42.902;25.336;2023-02-13T03:27:31;99124.84;;;-3.46;94.61
34297;BME280;20564;42.902;25.336;2023-02-13T03:47:04;99100.06;;;-3.69;94.96
34297;BME280;20564;42.902;25.336;2023-02-13T03:53:51;99092.34;;;-3.75;94.09
34297;BME280;20564;42.902;25.336;2023-02-13T03:59:57;99097.50;;;-3.75;93.88
34297;BME280;20564;42.902;25.336;2023-02-13T04:02:42;99099.25;;;-3.83;94.23
34297;BME280;20564;42.902;25.336;2023-02-13T04:08:42;99106.09;;;-3.88;94.18
34297;BME280;20564;42.902;25.336;2023-02-13T04:18:28;99089.00;;;-3.98;93.86
34297;BME280;20564;42.902;25.336;2023-02-13T04:28:37;99093.28;;;-4.00;92.39
34297;BME280;20564;42.902;25.336;2023-02-13T04:31:31;99100.16;;;-4.07;93.22
34297;BME280;20564;42.902;25.336;2023-02-13T04:34:16;99119.88;;;-4.14;92.45
34297;BME280;20564;42.902;25.336;2023-02-13T04:36:46;99119.03;;;-4.09;93.27
34297;BME280;20564;42.902;25.336;2023-02-13T04:39:54;99109.59;;;-4.07;92.45
34297;BME280;20564;42.902;25.336;2023-02-13T04:42:21;99086.47;;;-4.24;93.22
34297;BME280;20564;42.902;25.336;2023-02-13T04:45:35;99109.59;;;-4.14;92.53
34297;BME280;20564;42.902;25.336;2023-02-13T04:51:34;99085.63;;;-4.43;92.55
34297;BME280;20564;42.902;25.336;2023-02-13T04:54:02;99104.50;;;-4.41;92.87
34297;BME280;20564;42.902;25.336;2023-02-13T04:56:29;99118.19;;;-4.33;93.10
34297;BME280;20564;42.902;25.336;2023-02-13T04:58:56;99129.31;;;-4.25;92.57
34297;BME280;20564;42.902;25.336;2023-02-13T05:01:23;99112.19;;;-4.30;93.03
34297;BME280;20564;42.902;25.336;2023-02-13T05:03:50;99116.47;;;-4.34;91.78
34297;BME280;20564;42.902;25.336;2023-02-13T05:06:17;99109.63;;;-4.41;92.18
34297;BME280;20564;42.902;25.336;2023-02-13T05:08:44;99123.34;;;-4.42;91.77
34297;BME280;20564;42.902;25.336;2023-02-13T05:11:11;99125.03;;;-4.44;93.38
34297;BME280;20564;42.902;25.336;2023-02-13T05:13:39;99130.19;;;-4.44;93.47
34297;BME280;20564;42.902;25.336;2023-02-13T05:16:06;99128.47;;;-4.36;93.71
34297;BME280;20564;42.902;25.336;2023-02-13T05:18:33;99117.34;;;-4.46;93.05
34297;BME280;20564;42.902;25.336;2023-02-13T05:21:23;99131.91;;;-4.34;93.12
34297;BME280;20564;42.902;25.336;2023-02-13T05:24:12;99131.03;;;-4.36;92.26
34297;BME280;20564;42.902;25.336;2023-02-13T05:26:40;99131.91;;;-4.37;92.46
34297;BME280;20564;42.902;25.336;2023-02-13T05:29:08;99135.34;;;-4.35;90.82
34297;BME280;20564;42.902;25.336;2023-02-13T05:31:46;99131.88;;;-4.46;91.10
34297;BME280;20564;42.902;25.336;2023-02-13T05:34:13;99144.75;;;-4.45;92.42
34297;BME280;20564;42.902;25.336;2023-02-13T05:36:40;99145.63;;;-4.38;93.13
34297;BME280;20564;42.902;25.336;2023-02-13T05:39:07;99135.34;;;-4.41;93.42
34297;BME280;20564;42.902;25.336;2023-02-13T05:41:34;99140.47;;;-4.50;93.56
34297;BME280;20564;42.902;25.336;2023-02-13T05:44:02;99145.59;;;-4.44;93.35
34297;BME280;20564;42.902;25.336;2023-02-13T05:46:32;99145.59;;;-4.44;92.74
34297;BME280;20564;42.902;25.336;2023-02-13T05:49:10;99131.91;;;-4.49;93.28
34297;BME280;20564;42.902;25.336;2023-02-13T05:51:41;99144.75;;;-4.39;92.91
34297;BME280;20564;42.902;25.336;2023-02-13T05:54:08;99147.31;;;-4.34;92.85
34297;BME280;20564;42.902;25.336;2023-02-13T05:56:35;99146.47;;;-4.34;92.90
34297;BME280;20564;42.902;25.336;2023-02-13T05:59:03;99145.63;;;-4.41;92.18
34297;BME280;20564;42.902;25.336;2023-02-13T06:01:30;99157.59;;;-4.43;93.34
34297;BME280;20564;42.902;25.336;2023-02-13T06:03:57;99160.19;;;-4.45;93.09
34297;BME280;20564;42.902;25.336;2023-02-13T06:06:26;99152.44;;;-4.46;93.48
34297;BME280;20564;42.902;25.336;2023-02-13T06:08:53;99137.91;;;-4.47;92.80
34297;BME280;20564;42.902;25.336;2023-02-13T06:11:22;99160.19;;;-4.39;92.56
34297;BME280;20564;42.902;25.336;2023-02-13T06:13:50;99155.88;;;-4.32;93.18
34297;BME280;20564;42.902;25.336;2023-02-13T06:16:17;99158.47;;;-4.27;93.12
34297;BME280;20564;42.902;25.336;2023-02-13T06:18:44;99149.03;;;-4.33;92.65
34297;BME280;20564;42.902;25.336;2023-02-13T06:21:13;99168.75;;;-4.09;92.95
34297;BME280;20564;42.902;25.336;2023-02-13T06:23:44;99149.88;;;-4.17;93.16
34297;BME280;20564;42.902;25.336;2023-02-13T06:26:11;99167.03;;;-4.08;93.50
34297;BME280;20564;42.902;25.336;2023-02-13T06:28:38;99173.84;;;-3.92;93.57
34297;BME280;20564;42.902;25.336;2023-02-13T06:31:05;99167.88;;;-3.91;92.77
34297;BME280;20564;42.902;25.336;2023-02-13T06:33:32;99165.28;;;-3.91;92.94
34297;BME280;20564;42.902;25.336;2023-02-13T06:35:59;99160.97;;;-3.83;93.34
34297;BME280;20564;42.902;25.336;2023-02-13T06:38:26;99154.06;;;-3.73;92.86
34297;BME280;20564;42.902;25.336;2023-02-13T06:40:58;99171.19;;;-3.58;92.96
34297;BME280;20564;42.902;25.336;2023-02-13T06:43:26;99166.03;;;-3.52;93.33
34297;BME280;20564;42.902;25.336;2023-02-13T06:45:54;99159.13;;;-3.44;92.55
34297;BME280;20564;42.902;25.336;2023-02-13T06:48:21;99177.97;;;-3.30;93.05
34297;BME280;20564;42.902;25.336;2023-02-13T06:50:48;99166.84;;;-3.32;93.20
34297;BME280;20564;42.902;25.336;2023-02-13T06:53:18;99167.66;;;-3.24;93.96
34297;BME280;20564;42.902;25.336;2023-02-13T06:55:51;99165.00;;;-3.08;94.48
34297;BME280;20564;42.902;25.336;2023-02-13T06:58:22;99152.94;;;-3.00;94.49
34297;BME280;20564;42.902;25.336;2023-02-13T07:00:51;99154.56;;;-2.82;93.99
34297;BME280;20564;42.902;25.336;2023-02-13T07:03:18;99171.63;;;-2.63;94.02
34297;BME280;20564;42.902;25.336;2023-02-13T07:05:48;99153.59;;;-2.64;94.63
34297;BME280;20564;42.902;25.336;2023-02-13T07:08:17;99168.91;;;-2.46;95.02
34297;BME280;20564;42.902;25.336;2023-02-13T07:10:44;99170.56;;;-2.36;96.40
34297;BME280;20564;42.902;25.336;2023-02-13T07:13:11;99185.00;;;-2.16;96.54
34297;BME280;20564;42.902;25.336;2023-02-13T07:15:38;99184.03;;;-2.00;96.08
34297;BME280;20564;42.902;25.336;2023-02-13T07:18:06;99167.50;;;-1.81;95.51
34297;BME280;20564;42.902;25.336;2023-02-13T07:20:33;99181.97;;;-1.64;94.03
34297;BME280;20564;42.902;25.336;2023-02-13T07:23:02;99166.31;;;-1.49;93.13
34297;BME280;20564;42.902;25.336;2023-02-13T07:25:30;99169.63;;;-1.38;93.84
34297;BME280;20564;42.902;25.336;2023-02-13T07:28:04;99180.66;;;-1.25;93.16
34297;BME280;20564;42.902;25.336;2023-02-13T07:30:32;99176.22;;;-1.12;93.29
34297;BME280;20564;42.902;25.336;2023-02-13T07:33:04;99173.31;;;-0.89;92.44
34297;BME280;20564;42.902;25.336;2023-02-13T07:35:31;99167.94;;;-0.74;91.15
34297;BME280;20564;42.902;25.336;2023-02-13T07:37:59;99170.28;;;-0.57;90.24
34297;BME280;20564;42.902;25.336;2023-02-13T07:40:26;99160.69;;;-0.49;89.48
34297;BME280;20564;42.902;25.336;2023-02-13T07:42:54;99168.19;;;-0.34;88.92
34297;BME280;20564;42.902;25.336;2023-02-13T07:45:21;99165.41;;;-0.20;87.92
34297;BME280;20564;42.902;25.336;2023-02-13T07:47:48;99161.88;;;-0.14;87.84
34297;BME280;20564;42.902;25.336;2023-02-13T07:50:18;99152.97;;;0.01;87.52
34297;BME280;20564;42.902;25.336;2023-02-13T07:52:54;99160.38;;;0.20;85.98
34297;BME280;20564;42.902;25.336;2023-02-13T07:55:21;99160.94;;;0.38;86.26
34297;BME280;20564;42.902;25.336;2023-02-13T07:57:49;99155.56;;;0.47;86.07
34297;BME280;20564;42.902;25.336;2023-02-13T08:00:17;99160.44;;;0.64;86.56
34297;BME280;20564;42.902;25.336;2023-02-13T08:02:44;99147.38;;;0.68;85.36
34297;BME280;20564;42.902;25.336;2023-02-13T08:05:11;99152.19;;;0.87;84.28
34297;BME280;20564;42.902;25.336;2023-02-13T08:07:39;99138.03;;;1.03;83.47
34297;BME280;20564;42.902;25.336;2023-02-13T08:10:08;99132.50;;;1.18;82.07
34297;BME280;20564;42.902;25.336;2023-02-13T08:12:53;99134.56;;;1.41;82.03
34297;BME280;20564;42.902;25.336;2023-02-13T08:15:20;99138.41;;;1.62;80.63
34297;BME280;20564;42.902;25.336;2023-02-13T08:17:53;99133.94;;;1.67;79.56
34297;BME280;20564;42.902;25.336;2023-02-13T08:20:27;99127.63;;;1.78;80.19
34297;BME280;20564;42.902;25.336;2023-02-13T08:23:01;99126.66;;;1.83;78.89
34297;BME280;20564;42.902;25.336;2023-02-13T08:25:32;99128.81;;;2.00;79.05
34297;BME280;20564;42.902;25.336;2023-02-13T08:27:59;99118.00;;;2.15;77.66
34297;BME280;20564;42.902;25.336;2023-02-13T08:30:27;99125.38;;;2.32;76.94
34297;BME280;20564;42.902;25.336;2023-02-13T08:32:54;99124.09;;;2.47;77.25
34297;BME280;20564;42.902;25.336;2023-02-13T08:35:22;99119.38;;;2.61;76.25
34297;BME280;20564;42.902;25.336;2023-02-13T08:37:52;99126.16;;;2.67;74.35
34297;BME280;20564;42.902;25.336;2023-02-13T08:40:20;99115.34;;;2.81;74.46
34297;BME280;20564;42.902;25.336;2023-02-13T08:43:00;99107.06;;;2.96;72.88
34297;BME280;20564;42.902;25.336;2023-02-13T08:45:28;99097.22;;;3.07;70.41
34297;BME280;20564;42.902;25.336;2023-02-13T08:47:56;99109.66;;;3.26;70.12
34297;BME280;20564;42.902;25.336;2023-02-13T08:50:23;99107.94;;;3.25;68.34
34297;BME280;20564;42.902;25.336;2023-02-13T08:52:51;99104.56;;;3.23;68.58
34297;BME280;20564;42.902;25.336;2023-02-13T08:55:18;99088.94;;;3.23;67.95
34297;BME280;20564;42.902;25.336;2023-02-13T08:57:46;99094.50;;;3.38;67.47
34297;BME280;20564;42.902;25.336;2023-02-13T09:00:13;99096.84;;;3.46;67.95
34297;BME280;20564;42.902;25.336;2023-02-13T09:02:41;99100.72;;;3.61;66.59
34297;BME280;20564;42.902;25.336;2023-02-13T09:05:07;99095.25;;;3.69;67.36
34297;BME280;20564;42.902;25.336;2023-02-13T09:07:34;99094.88;;;3.81;65.68
34297;BME280;20564;42.902;25.336;2023-02-13T09:10:01;99085.25;;;3.83;65.49
34297;BME280;20564;42.902;25.336;2023-02-13T09:12:28;99095.00;;;4.03;64.97
34297;BME280;20564;42.902;25.336;2023-02-13T09:14:55;99089.34;;;4.15;64.64
34297;BME280;20564;42.902;25.336;2023-02-13T09:17:22;99078.63;;;4.24;64.83
34297;BME280;20564;42.902;25.336;2023-02-13T09:19:49;99087.03;;;4.31;63.74
34297;BME280;20564;42.902;25.336;2023-02-13T09:22:16;99084.44;;;4.31;64.67
34297;BME280;20564;42.902;25.336;2023-02-13T09:24:43;99076.31;;;4.40;65.35
34297;BME280;20564;42.902;25.336;2023-02-13T09:27:13;99083.09;;;4.44;64.74
34297;BME280;20564;42.902;25.336;2023-02-13T09:29:40;99060.44;;;4.46;63.55
34297;BME280;20564;42.902;25.336;2023-02-13T09:32:07;99076.38;;;4.62;63.63
34297;BME280;20564;42.902;25.336;2023-02-13T09:34:34;99075.16;;;4.71;63.86
34297;BME280;20564;42.902;25.336;2023-02-13T09:37:01;99063.41;;;4.82;63.55
34297;BME280;20564;42.902;25.336;2023-02-13T09:39:28;99055.31;;;4.90;63.83
34297;BME280;20564;42.902;25.336;2023-02-13T09:41:57;99048.25;;;4.92;63.04
34297;BME280;20564;42.902;25.336;2023-02-13T09:44:37;99057.56;;;4.99;63.94
34297;BME280;20564;42.902;25.336;2023-02-13T09:47:27;99045.97;;;5.06;63.10
34297;BME280;20564;42.902;25.336;2023-02-13T09:50:00;99038.94;;;5.08;63.05
34297;BME280;20564;42.902;25.336;2023-02-13T09:52:33;99033.97;;;5.02;63.15
34297;BME280;20564;42.902;25.336;2023-02-13T09:55:02;99037.22;;;5.07;63.04
34297;BME280;20564;42.902;25.336;2023-02-13T09:57:43;99028.00;;;4.99;63.73
34297;BME280;20564;42.902;25.336;2023-02-13T10:08:33;99019.88;;;5.06;63.14
34297;BME280;20564;42.902;25.336;2023-02-13T10:14:05;99012.03;;;5.06;64.75
34297;BME280;20564;42.902;25.336;2023-02-13T10:16:41;99008.94;;;5.19;62.56
34297;BME280;20564;42.902;25.336;2023-02-13T10:21:58;99005.06;;;5.07;62.98
34297;BME280;20564;42.902;25.336;2023-02-13T10:24:36;98998.63;;;5.16;62.97
34297;BME280;20564;42.902;25.336;2023-02-13T10:27:24;98983.09;;;5.13;62.64
34297;BME280;20564;42.902;25.336;2023-02-13T10:30:00;98975.91;;;5.18;62.05
34297;BME280;20564;42.902;25.336;2023-02-13T10:32:45;98986.44;;;5.37;63.58
34297;BME280;20564;42.902;25.336;2023-02-13T10:35:22;98981.94;;;5.40;61.11
34297;BME280;20564;42.902;25.336;2023-02-13T10:37:53;98977.78;;;5.36;60.64
34297;BME280;20564;42.902;25.336;2023-02-13T10:40:27;98981.69;;;5.46;61.78
34297;BME280;20564;42.902;25.336;2023-02-13T10:43:31;98985.69;;;5.55;61.46
34297;BME280;20564;42.902;25.336;2023-02-13T10:46:21;98975.69;;;5.65;60.36
34297;BME280;20564;42.902;25.336;2023-02-13T10:51:44;98962.72;;;5.63;61.11
34297;BME280;20564;42.902;25.336;2023-02-13T10:54:44;98964.19;;;5.89;62.08
34297;BME280;20564;42.902;25.336;2023-02-13T10:57:31;98957.25;;;5.88;60.74
34297;BME280;20564;42.902;25.336;2023-02-13T11:00:37;98947.34;;;5.76;59.96
34297;BME280;20564;42.902;25.336;2023-02-13T11:03:18;98957.41;;;5.85;60.78
34297;BME280;20564;42.902;25.336;2023-02-13T11:05:45;98953.06;;;5.84;59.54
34297;BME280;20564;42.902;25.336;2023-02-13T11:08:24;98957.81;;;5.96;59.63
34297;BME280;20564;42.902;25.336;2023-02-13T11:10:52;98953.81;;;6.08;59.80
34297;BME280;20564;42.902;25.336;2023-02-13T11:13:21;98940.50;;;6.13;59.15
34297;BME280;20564;42.902;25.336;2023-02-13T11:18:28;98932.31;;;6.01;60.97
34297;BME280;20564;42.902;25.336;2023-02-13T11:21:07;98924.25;;;6.06;59.65
34297;BME280;20564;42.902;25.336;2023-02-13T11:26:53;98923.72;;;6.18;60.29
34297;BME280;20564;42.902;25.336;2023-02-13T11:28:59;98919.81;;;6.27;59.10
34297;BME280;20564;42.902;25.336;2023-02-13T11:33:57;98914.38;;;6.13;58.56
34297;BME280;20564;42.902;25.336;2023-02-13T11:36:27;98916.38;;;6.08;59.89
34297;BME280;20564;42.902;25.336;2023-02-13T11:39:11;98909.41;;;6.07;59.01
34297;BME280;20564;42.902;25.336;2023-02-13T11:41:45;98913.94;;;6.03;58.80
34297;BME280;20564;42.902;25.336;2023-02-13T11:44:29;98921.84;;;6.01;59.75
34297;BME280;20564;42.902;25.336;2023-02-13T11:46:59;98913.66;;;6.09;60.07
34297;BME280;20564;42.902;25.336;2023-02-13T11:49:28;98911.34;;;6.22;58.59
34297;BME280;20564;42.902;25.336;2023-02-13T11:52:00;98907.59;;;6.27;59.26
34297;BME280;20564;42.902;25.336;2023-02-13T11:54:39;98900.22;;;6.36;58.80
34297;BME280;20564;42.902;25.336;2023-02-13T11:57:22;98899.25;;;6.38;59.25
34297;BME280;20564;42.902;25.336;2023-02-13T11:59:51;98897.09;;;6.46;58.69
34297;BME280;20564;42.902;25.336;2023-02-13T12:02:29;98874.78;;;6.39;58.63
34297;BME280;20564;42.902;25.336;2023-02-13T12:05:19;98887.50;;;6.47;57.52
34297;BME280;20564;42.902;25.336;2023-02-13T12:07:48;98890.31;;;6.42;57.52
34297;BME280;20564;42.902;25.336;2023-02-13T12:10:22;98878.31;;;6.38;58.28
34297;BME280;20564;42.902;25.336;2023-02-13T12:12:55;98884.53;;;6.55;56.34
34297;BME280;20564;42.902;25.336;2023-02-13T12:15:28;98878.69;;;6.67;54.86
34297;BME280;20564;42.902;25.336;2023-02-13T12:21:02;98868.16;;;6.68;56.25
34297;BME280;20564;42.902;25.336;2023-02-13T12:23:47;98861.56;;;6.79;57.49
34297;BME280;20564;42.902;25.336;2023-02-13T12:26:30;98855.19;;;6.84;56.81
34297;BME280;20564;42.902;25.336;2023-02-13T12:29:06;98862.66;;;6.92;56.88
34297;BME280;20564;42.902;25.336;2023-02-13T12:31:58;98857.63;;;6.87;56.97
34297;BME280;20564;42.902;25.336;2023-02-13T12:37:18;98834.84;;;7.07;57.89
34297;BME280;20564;42.902;25.336;2023-02-13T12:45:40;98852.31;;;7.23;56.61
34297;BME280;20564;42.902;25.336;2023-02-13T12:48:22;98844.53;;;7.22;57.70
34297;BME280;20564;42.902;25.336;2023-02-13T13:08:20;98836.09;;;6.99;56.73
34297;BME280;20564;42.902;25.336;2023-02-13T13:13:40;98842.09;;;6.84;59.09
34297;BME280;20564;42.902;25.336;2023-02-13T13:16:36;98829.59;;;6.72;58.92
34297;BME280;20564;42.902;25.336;2023-02-13T13:19:21;98837.78;;;6.66;59.40
34297;BME280;20564;42.902;25.336;2023-02-13T13:22:02;98839.88;;;6.58;60.19
34297;BME280;20564;42.902;25.336;2023-02-13T13:27:23;98830.03;;;6.45;59.96
34297;BME280;20564;42.902;25.336;2023-02-13T13:30:12;98841.28;;;6.47;60.17
34297;BME280;20564;42.902;25.336;2023-02-13T13:32:42;98833.50;;;6.46;62.12
34297;BME280;20564;42.902;25.336;2023-02-13T13:35:15;98833.22;;;6.52;59.74
34297;BME280;20564;42.902;25.336;2023-02-13T13:38:13;98835.44;;;6.60;58.50
34297;BME280;20564;42.902;25.336;2023-02-13T13:49:13;98819.28;;;6.69;59.36
34297;BME280;20564;42.902;25.336;2023-02-13T13:51:46;98820.50;;;6.62;59.07
34297;BME280;20564;42.902;25.336;2023-02-13T14:07:49;98798.56;;;6.47;60.59
34297;BME280;20564;42.902;25.336;2023-02-13T14:18:05;98798.84;;;6.23;61.25
34297;BME280;20564;42.902;25.336;2023-02-13T14:31:37;98785.47;;;5.92;60.29
34297;BME280;20564;42.902;25.336;2023-02-13T14:36:43;98778.44;;;5.75;61.71
34297;BME280;20564;42.902;25.336;2023-02-13T14:46:47;98762.44;;;5.45;64.40
34297;BME280;20564;42.902;25.336;2023-02-13T14:49:31;98779.56;;;5.50;65.23
34297;BME280;20564;42.902;25.336;2023-02-13T14:52:03;98778.28;;;5.40;65.20
34297;BME280;20564;42.902;25.336;2023-02-13T14:54:42;98778.28;;;5.40;64.74
34297;BME280;20564;42.902;25.336;2023-02-13T14:57:18;98774.78;;;5.41;64.90
34297;BME280;20564;42.902;25.336;2023-02-13T14:59:54;98770.53;;;5.39;64.79
34297;BME280;20564;42.902;25.336;2023-02-13T15:02:24;98768.25;;;5.31;66.36
34297;BME280;20564;42.902;25.336;2023-02-13T15:04:56;98764.28;;;5.22;65.89
34297;BME280;20564;42.902;25.336;2023-02-13T15:07:34;98755.22;;;5.11;66.84
34297;BME280;20564;42.902;25.336;2023-02-13T15:12:58;98768.44;;;4.87;68.46
34297;BME280;20564;42.902;25.336;2023-02-13T15:15:34;98763.28;;;4.65;70.04
34297;BME280;20564;42.902;25.336;2023-02-13T15:18:07;98758.00;;;4.46;71.84
34297;BME280;20564;42.902;25.336;2023-02-13T15:20:36;98762.88;;;4.33;73.43
34297;BME280;20564;42.902;25.336;2023-02-13T15:23:07;98755.88;;;4.14;74.85
34297;BME280;20564;42.902;25.336;2023-02-13T15:25:45;98773.00;;;3.97;75.41
34297;BME280;20564;42.902;25.336;2023-02-13T15:28:22;98765.56;;;3.88;76.97
34297;BME280;20564;42.902;25.336;2023-02-13T15:31:01;98770.00;;;3.62;77.39
34297;BME280;20564;42.902;25.336;2023-02-13T15:33:44;98777.25;;;3.31;81.39
34297;BME280;20564;42.902;25.336;2023-02-13T15:36:24;98776.13;;;3.14;80.80
34297;BME280;20564;42.902;25.336;2023-02-13T15:39:01;98783.88;;;2.91;81.51
34297;BME280;20564;42.902;25.336;2023-02-13T15:41:36;98787.91;;;2.75;82.54
34297;BME280;20564;42.902;25.336;2023-02-13T15:44:05;98785.72;;;2.62;82.54
34297;BME280;20564;42.902;25.336;2023-02-13T15:46:34;98798.44;;;2.45;84.25
34297;BME280;20564;42.902;25.336;2023-02-13T15:49:07;98799.38;;;2.42;84.26
34297;BME280;20564;42.902;25.336;2023-02-13T15:51:36;98803.94;;;2.36;85.24
34297;BME280;20564;42.902;25.336;2023-02-13T15:54:06;98799.22;;;2.21;86.18
34297;BME280;20564;42.902;25.336;2023-02-13T15:56:36;98779.22;;;1.96;86.08
34297;BME280;20564;42.902;25.336;2023-02-13T15:59:06;98791.50;;;1.91;87.54
34297;BME280;20564;42.902;25.336;2023-02-13T16:01:33;98794.38;;;1.82;87.98
34297;BME280;20564;42.902;25.336;2023-02-13T16:04:05;98785.53;;;1.59;89.83
34297;BME280;20564;42.902;25.336;2023-02-13T16:06:33;98805.13;;;1.69;89.56
34297;BME280;20564;42.902;25.336;2023-02-13T16:09:01;98804.59;;;1.58;89.20
34297;BME280;20564;42.902;25.336;2023-02-13T16:11:35;98789.56;;;1.40;89.96
34297;BME280;20564;42.902;25.336;2023-02-13T16:14:19;98801.63;;;1.41;90.45
34297;BME280;20564;42.902;25.336;2023-02-13T16:17:00;98805.28;;;1.34;91.60
34297;BME280;20564;42.902;25.336;2023-02-13T16:19:52;98787.56;;;1.18;92.54
34297;BME280;20564;42.902;25.336;2023-02-13T16:22:27;98805.72;;;1.18;92.44
34297;BME280;20564;42.902;25.336;2023-02-13T16:27:55;98808.66;;;1.06;93.26
34297;BME280;20564;42.902;25.336;2023-02-13T16:35:43;98784.44;;;0.75;93.44
34297;BME280;20564;42.902;25.336;2023-02-13T16:40:59;98800.00;;;0.73;94.83
34297;BME280;20564;42.902;25.336;2023-02-13T16:43:48;98809.78;;;0.62;95.07
34297;BME280;20564;42.902;25.336;2023-02-13T16:49:04;98816.00;;;0.56;95.94
34297;BME280;20564;42.902;25.336;2023-02-13T16:51:43;98812.59;;;0.54;96.37
34297;BME280;20564;42.902;25.336;2023-02-13T16:54:18;98793.94;;;0.40;96.12
34297;BME280;20564;42.902;25.336;2023-02-13T16:56:58;98799.94;;;0.42;96.63
34297;BME280;20564;42.902;25.336;2023-02-13T16:59:27;98807.66;;;0.45;96.50
34297;BME280;20564;42.902;25.336;2023-02-13T17:04:34;98783.19;;;0.21;96.80
34297;BME280;20564;42.902;25.336;2023-02-13T17:07:11;98800.25;;;0.30;97.78
34297;BME280;20564;42.902;25.336;2023-02-13T17:09:38;98785.88;;;0.16;97.83
34297;BME280;20564;42.902;25.336;2023-02-13T17:12:15;98794.38;;;0.21;97.43
34297;BME280;20564;42.902;25.336;2023-02-13T17:14:44;98800.47;;;0.20;97.15
34297;BME280;20564;42.902;25.336;2023-02-13T17:17:18;98797.66;;;0.30;97.23
34297;BME280;20564;42.902;25.336;2023-02-13T17:19:45;98801.13;;;0.29;97.45
34297;BME280;20564;42.902;25.336;2023-02-13T17:22:33;98807.06;;;0.32;96.86
34297;BME280;20564;42.902;25.336;2023-02-13T17:25:04;98790.94;;;0.22;96.54
34297;BME280;20564;42.902;25.336;2023-02-13T17:27:41;98785.97;;;0.13;96.78